sensor_id;sensor_type;location;lat;lon;timestamp;P1;durP1;ratioP1;P2;durP2;ratioP2
5491;SDS011;2768;53.540;10.224;2022-09-12T00:00:20;2.40;;;2.10;;
5491;SDS011;2768;53.540;10.224;2022-09-12T00:06:15;4.90;;;1.93;;
5491;SDS011;2768;53.540;10.224;2022-09-12T00:12:13;2.23;;;2.03;;
5491;SDS011;2768;53.540;10.224;2022-09-12T00:18:09;2.17;;;1.80;;
5491;SDS011;2768;53.540;10.224;2022-09-12T00:24:06;1.73;;;1.63;;
5491;SDS011;2768;53.540;10.224;2022-09-12T00:30:00;5.33;;;1.90;;
5491;SDS011;2768;53.540;10.224;2022-09-12T00:35:55;1.90;;;1.80;;
5491;SDS011;2768;53.540;10.224;2022-09-12T00:41:48;2.00;;;1.90;;
5491;SDS011;2768;53.540;10.224;2022-09-12T00:47:41;1.80;;;1.70;;
5491;SDS011;2768;53.540;10.224;2022-09-12T00:53:37;2.50;;;1.90;;
5491;SDS011;2768;53.540;10.224;2022-09-12T00:59:32;1.90;;;1.80;;
5491;SDS011;2768;53.540;10.224;2022-09-12T01:05:29;3.00;;;2.07;;
5491;SDS011;2768;53.540;10.224;2022-09-12T01:11:26;2.07;;;1.80;;
5491;SDS011;2768;53.540;10.224;2022-09-12T01:17:21;3.00;;;1.60;;
5491;SDS011;2768;53.540;10.224;2022-09-12T01:23:25;1.83;;;1.60;;
5491;SDS011;2768;53.540;10.224;2022-09-12T01:29:55;1.97;;;1.70;;
5491;SDS011;2768;53.540;10.224;2022-09-12T01:42:30;1.67;;;1.50;;
5491;SDS011;2768;53.540;10.224;2022-09-12T01:48:28;2.50;;;1.83;;
5491;SDS011;2768;53.540;10.224;2022-09-12T01:54:28;1.60;;;1.50;;
5491;SDS011;2768;53.540;10.224;2022-09-12T02:00:29;2.80;;;1.70;;
5491;SDS011;2768;53.540;10.224;2022-09-12T02:06:28;1.97;;;1.63;;
5491;SDS011;2768;53.540;10.224;2022-09-12T02:12:25;1.80;;;1.70;;
5491;SDS011;2768;53.540;10.224;2022-09-12T02:18:22;2.90;;;1.50;;
5491;SDS011;2768;53.540;10.224;2022-09-12T02:24:20;2.37;;;1.60;;
5491;SDS011;2768;53.540;10.224;2022-09-12T02:30:16;1.60;;;1.50;;
5491;SDS011;2768;53.540;10.224;2022-09-12T02:36:11;2.17;;;1.60;;
5491;SDS011;2768;53.540;10.224;2022-09-12T02:42:15;1.70;;;1.60;;
5491;SDS011;2768;53.540;10.224;2022-09-12T02:48:09;2.20;;;1.60;;
5491;SDS011;2768;53.540;10.224;2022-09-12T02:54:06;1.63;;;1.53;;
5491;SDS011;2768;53.540;10.224;2022-09-12T03:00:03;3.90;;;1.57;;
5491;SDS011;2768;53.540;10.224;2022-09-12T03:05:59;4.10;;;1.50;;
5491;SDS011;2768;53.540;10.224;2022-09-12T03:11:59;2.53;;;1.70;;
5491;SDS011;2768;53.540;10.224;2022-09-12T03:18:10;1.80;;;1.63;;
5491;SDS011;2768;53.540;10.224;2022-09-12T03:24:15;1.97;;;1.47;;
5491;SDS011;2768;53.540;10.224;2022-09-12T03:30:10;1.53;;;1.43;;
5491;SDS011;2768;53.540;10.224;2022-09-12T03:36:06;1.60;;;1.40;;
5491;SDS011;2768;53.540;10.224;2022-09-12T03:42:05;1.57;;;1.47;;
5491;SDS011;2768;53.540;10.224;2022-09-12T03:47:58;2.80;;;1.57;;
5491;SDS011;2768;53.540;10.224;2022-09-12T03:53:54;3.83;;;1.67;;
5491;SDS011;2768;53.540;10.224;2022-09-12T03:59:47;1.30;;;1.20;;
5491;SDS011;2768;53.540;10.224;2022-09-12T04:05:41;1.83;;;1.30;;
5491;SDS011;2768;53.540;10.224;2022-09-12T04:11:35;1.60;;;1.27;;
5491;SDS011;2768;53.540;10.224;2022-09-12T04:17:29;2.83;;;1.40;;
5491;SDS011;2768;53.540;10.224;2022-09-12T04:23:22;2.23;;;1.57;;
5491;SDS011;2768;53.540;10.224;2022-09-12T04:29:17;1.40;;;1.30;;
5491;SDS011;2768;53.540;10.224;2022-09-12T04:35:11;1.97;;;1.30;;
5491;SDS011;2768;53.540;10.224;2022-09-12T04:41:11;3.63;;;1.57;;
5491;SDS011;2768;53.540;10.224;2022-09-12T04:47:06;3.77;;;2.43;;
5491;SDS011;2768;53.540;10.224;2022-09-12T04:53:00;2.60;;;1.50;;
5491;SDS011;2768;53.540;10.224;2022-09-12T04:58:53;2.70;;;2.10;;
5491;SDS011;2768;53.540;10.224;2022-09-12T05:04:49;2.03;;;1.70;;
5491;SDS011;2768;53.540;10.224;2022-09-12T05:10:42;3.77;;;1.57;;
5491;SDS011;2768;53.540;10.224;2022-09-12T05:16:35;2.93;;;1.70;;
5491;SDS011;2768;53.540;10.224;2022-09-12T05:22:30;1.50;;;1.40;;
5491;SDS011;2768;53.540;10.224;2022-09-12T05:28:24;7.43;;;6.70;;
5491;SDS011;2768;53.540;10.224;2022-09-12T05:34:20;6.43;;;5.83;;
5491;SDS011;2768;53.540;10.224;2022-09-12T05:40:15;2.40;;;2.20;;
5491;SDS011;2768;53.540;10.224;2022-09-12T05:46:10;5.33;;;3.30;;
5491;SDS011;2768;53.540;10.224;2022-09-12T05:52:04;3.70;;;2.73;;
5491;SDS011;2768;53.540;10.224;2022-09-12T05:57:58;4.83;;;3.00;;
5491;SDS011;2768;53.540;10.224;2022-09-12T06:03:53;3.00;;;2.80;;
5491;SDS011;2768;53.540;10.224;2022-09-12T06:09:48;4.40;;;2.63;;
5491;SDS011;2768;53.540;10.224;2022-09-12T06:15:42;3.10;;;2.50;;
5491;SDS011;2768;53.540;10.224;2022-09-12T06:21:35;2.70;;;2.50;;
5491;SDS011;2768;53.540;10.224;2022-09-12T06:27:29;3.30;;;3.10;;
5491;SDS011;2768;53.540;10.224;2022-09-12T06:33:24;4.00;;;3.67;;
5491;SDS011;2768;53.540;10.224;2022-09-12T06:39:18;3.43;;;3.13;;
5491;SDS011;2768;53.540;10.224;2022-09-12T06:45:12;4.70;;;3.60;;
5491;SDS011;2768;53.540;10.224;2022-09-12T06:51:09;4.90;;;4.40;;
5491;SDS011;2768;53.540;10.224;2022-09-12T06:57:04;5.90;;;5.40;;
5491;SDS011;2768;53.540;10.224;2022-09-12T07:02:57;6.57;;;5.97;;
5491;SDS011;2768;53.540;10.224;2022-09-12T07:08:52;8.73;;;8.03;;
5491;SDS011;2768;53.540;10.224;2022-09-12T07:14:45;7.90;;;7.30;;
5491;SDS011;2768;53.540;10.224;2022-09-12T07:20:38;7.60;;;6.90;;
5491;SDS011;2768;53.540;10.224;2022-09-12T07:26:33;28.77;;;9.73;;
5491;SDS011;2768;53.540;10.224;2022-09-12T07:32:27;6.50;;;6.00;;
5491;SDS011;2768;53.540;10.224;2022-09-12T07:38:20;6.40;;;5.80;;
5491;SDS011;2768;53.540;10.224;2022-09-12T07:44:15;7.30;;;5.60;;
5491;SDS011;2768;53.540;10.224;2022-09-12T07:50:08;5.37;;;4.97;;
5491;SDS011;2768;53.540;10.224;2022-09-12T07:56:02;5.93;;;5.33;;
5491;SDS011;2768;53.540;10.224;2022-09-12T08:01:58;4.77;;;4.47;;
5491;SDS011;2768;53.540;10.224;2022-09-12T08:07:52;5.23;;;4.83;;
5491;SDS011;2768;53.540;10.224;2022-09-12T08:13:48;5.47;;;4.97;;
5491;SDS011;2768;53.540;10.224;2022-09-12T08:19:47;4.30;;;4.00;;
5491;SDS011;2768;53.540;10.224;2022-09-12T08:25:40;3.80;;;3.47;;
5491;SDS011;2768;53.540;10.224;2022-09-12T08:31:33;4.50;;;4.10;;
5491;SDS011;2768;53.540;10.224;2022-09-12T08:37:30;3.90;;;3.60;;
5491;SDS011;2768;53.540;10.224;2022-09-12T08:43:26;3.50;;;3.17;;
5491;SDS011;2768;53.540;10.224;2022-09-12T08:49:25;2.83;;;2.63;;
5491;SDS011;2768;53.540;10.224;2022-09-12T08:55:24;4.10;;;3.73;;
5491;SDS011;2768;53.540;10.224;2022-09-12T09:01:26;3.60;;;3.30;;
5491;SDS011;2768;53.540;10.224;2022-09-12T09:07:29;3.00;;;2.80;;
5491;SDS011;2768;53.540;10.224;2022-09-12T09:13:39;3.27;;;3.07;;
5491;SDS011;2768;53.540;10.224;2022-09-12T09:20:00;3.10;;;2.70;;
5491;SDS011;2768;53.540;10.224;2022-09-12T09:26:03;3.13;;;2.90;;
5491;SDS011;2768;53.540;10.224;2022-09-12T09:32:02;3.30;;;3.00;;
5491;SDS011;2768;53.540;10.224;2022-09-12T09:38:04;2.80;;;2.60;;
5491;SDS011;2768;53.540;10.224;2022-09-12T09:44:06;2.80;;;2.60;;
5491;SDS011;2768;53.540;10.224;2022-09-12T09:50:01;2.70;;;2.50;;
5491;SDS011;2768;53.540;10.224;2022-09-12T09:55:54;4.33;;;2.67;;
5491;SDS011;2768;53.540;10.224;2022-09-12T10:01:50;4.67;;;2.70;;
5491;SDS011;2768;53.540;10.224;2022-09-12T10:07:49;1.90;;;1.80;;
5491;SDS011;2768;53.540;10.224;2022-09-12T10:13:53;2.20;;;2.10;;
5491;SDS011;2768;53.540;10.224;2022-09-12T10:19:48;2.20;;;2.10;;
5491;SDS011;2768;53.540;10.224;2022-09-12T10:26:04;3.77;;;3.47;;
5491;SDS011;2768;53.540;10.224;2022-09-12T10:32:02;3.57;;;3.27;;
5491;SDS011;2768;53.540;10.224;2022-09-12T10:37:59;3.90;;;3.40;;
5491;SDS011;2768;53.540;10.224;2022-09-12T10:43:57;3.20;;;3.00;;
5491;SDS011;2768;53.540;10.224;2022-09-12T10:56:15;3.67;;;3.47;;
5491;SDS011;2768;53.540;10.224;2022-09-12T11:02:13;3.20;;;3.00;;
5491;SDS011;2768;53.540;10.224;2022-09-12T11:08:22;4.70;;;2.90;;
5491;SDS011;2768;53.540;10.224;2022-09-12T11:14:40;3.17;;;2.97;;
5491;SDS011;2768;53.540;10.224;2022-09-12T11:20:50;2.13;;;1.80;;
5491;SDS011;2768;53.540;10.224;2022-09-12T11:26:56;3.63;;;1.70;;
5491;SDS011;2768;53.540;10.224;2022-09-12T11:33:02;2.00;;;1.80;;
5491;SDS011;2768;53.540;10.224;2022-09-12T11:39:13;2.77;;;1.90;;
5491;SDS011;2768;53.540;10.224;2022-09-12T11:45:11;2.37;;;1.30;;
5491;SDS011;2768;53.540;10.224;2022-09-12T11:51:12;1.70;;;1.60;;
5491;SDS011;2768;53.540;10.224;2022-09-12T11:57:13;1.10;;;1.00;;
5491;SDS011;2768;53.540;10.224;2022-09-12T12:03:12;3.93;;;1.20;;
5491;SDS011;2768;53.540;10.224;2022-09-12T12:09:09;1.13;;;1.03;;
5491;SDS011;2768;53.540;10.224;2022-09-12T12:15:06;2.03;;;1.10;;
5491;SDS011;2768;53.540;10.224;2022-09-12T12:21:18;1.37;;;1.27;;
5491;SDS011;2768;53.540;10.224;2022-09-12T12:27:22;1.10;;;1.10;;
5491;SDS011;2768;53.540;10.224;2022-09-12T12:40:02;1.37;;;1.27;;
5491;SDS011;2768;53.540;10.224;2022-09-12T12:46:05;1.30;;;1.20;;
5491;SDS011;2768;53.540;10.224;2022-09-12T12:52:03;1.77;;;1.33;;
5491;SDS011;2768;53.540;10.224;2022-09-12T12:57:57;1.10;;;1.10;;
5491;SDS011;2768;53.540;10.224;2022-09-12T13:03:52;1.23;;;1.20;;
5491;SDS011;2768;53.540;10.224;2022-09-12T13:09:49;1.20;;;1.10;;
5491;SDS011;2768;53.540;10.224;2022-09-12T13:15:47;1.60;;;1.40;;
5491;SDS011;2768;53.540;10.224;2022-09-12T13:21:53;1.47;;;1.40;;
5491;SDS011;2768;53.540;10.224;2022-09-12T13:27:57;1.77;;;1.13;;
5491;SDS011;2768;53.540;10.224;2022-09-12T13:33:56;1.00;;;1.00;;
5491;SDS011;2768;53.540;10.224;2022-09-12T13:39:52;1.50;;;1.40;;
5491;SDS011;2768;53.540;10.224;2022-09-12T13:45:55;2.10;;;1.37;;
5491;SDS011;2768;53.540;10.224;2022-09-12T13:51:55;1.73;;;1.30;;
5491;SDS011;2768;53.540;10.224;2022-09-12T13:57:55;1.37;;;1.30;;
5491;SDS011;2768;53.540;10.224;2022-09-12T14:03:50;2.63;;;1.17;;
5491;SDS011;2768;53.540;10.224;2022-09-12T14:10:00;2.33;;;1.40;;
5491;SDS011;2768;53.540;10.224;2022-09-12T14:15:55;1.10;;;1.10;;
5491;SDS011;2768;53.540;10.224;2022-09-12T14:21:48;1.33;;;1.33;;
5491;SDS011;2768;53.540;10.224;2022-09-12T14:27:45;1.70;;;1.60;;
5491;SDS011;2768;53.540;10.224;2022-09-12T14:33:45;1.60;;;1.50;;
5491;SDS011;2768;53.540;10.224;2022-09-12T14:39:40;1.20;;;1.10;;
5491;SDS011;2768;53.540;10.224;2022-09-12T14:45:37;1.50;;;1.40;;
5491;SDS011;2768;53.540;10.224;2022-09-12T14:51:30;1.40;;;1.30;;
5491;SDS011;2768;53.540;10.224;2022-09-12T14:57:31;1.10;;;1.10;;
5491;SDS011;2768;53.540;10.224;2022-09-12T15:03:29;1.47;;;1.17;;
5491;SDS011;2768;53.540;10.224;2022-09-12T15:09:24;1.63;;;1.40;;
5491;SDS011;2768;53.540;10.224;2022-09-12T15:15:17;1.90;;;1.57;;
5491;SDS011;2768;53.540;10.224;2022-09-12T15:21:15;1.53;;;1.37;;
5491;SDS011;2768;53.540;10.224;2022-09-12T15:27:10;1.50;;;1.40;;
5491;SDS011;2768;53.540;10.224;2022-09-12T15:33:04;1.87;;;1.60;;
5491;SDS011;2768;53.540;10.224;2022-09-12T15:38:59;2.50;;;1.20;;
5491;SDS011;2768;53.540;10.224;2022-09-12T15:44:52;1.23;;;1.23;;
5491;SDS011;2768;53.540;10.224;2022-09-12T15:50:51;1.63;;;1.53;;
5491;SDS011;2768;53.540;10.224;2022-09-12T15:56:45;1.80;;;1.70;;
5491;SDS011;2768;53.540;10.224;2022-09-12T16:02:39;2.27;;;2.00;;
5491;SDS011;2768;53.540;10.224;2022-09-12T16:08:32;2.08;;;1.70;;
5491;SDS011;2768;53.540;10.224;2022-09-12T16:14:26;2.10;;;2.00;;
5491;SDS011;2768;53.540;10.224;2022-09-12T16:20:20;2.13;;;2.03;;
5491;SDS011;2768;53.540;10.224;2022-09-12T16:26:14;2.30;;;2.07;;
5491;SDS011;2768;53.540;10.224;2022-09-12T16:32:10;2.30;;;2.20;;
5491;SDS011;2768;53.540;10.224;2022-09-12T16:38:03;2.10;;;2.00;;
5491;SDS011;2768;53.540;10.224;2022-09-12T16:43:57;4.03;;;2.20;;
5491;SDS011;2768;53.540;10.224;2022-09-12T16:49:53;2.63;;;2.50;;
5491;SDS011;2768;53.540;10.224;2022-09-12T16:55:47;2.43;;;2.33;;
5491;SDS011;2768;53.540;10.224;2022-09-12T17:01:40;2.60;;;2.40;;
5491;SDS011;2768;53.540;10.224;2022-09-12T17:07:37;2.30;;;2.10;;
5491;SDS011;2768;53.540;10.224;2022-09-12T17:13:29;2.40;;;2.30;;
5491;SDS011;2768;53.540;10.224;2022-09-12T17:19:43;2.73;;;2.50;;
5491;SDS011;2768;53.540;10.224;2022-09-12T17:25:38;2.50;;;2.30;;
5491;SDS011;2768;53.540;10.224;2022-09-12T17:31:31;4.90;;;2.80;;
5491;SDS011;2768;53.540;10.224;2022-09-12T17:37:25;2.57;;;2.37;;
5491;SDS011;2768;53.540;10.224;2022-09-12T17:43:20;2.60;;;2.40;;
5491;SDS011;2768;53.540;10.224;2022-09-12T17:49:13;4.10;;;3.70;;
5491;SDS011;2768;53.540;10.224;2022-09-12T17:55:09;3.13;;;2.93;;
5491;SDS011;2768;53.540;10.224;2022-09-12T18:01:04;4.00;;;3.70;;
5491;SDS011;2768;53.540;10.224;2022-09-12T18:07:18;3.97;;;3.50;;
5491;SDS011;2768;53.540;10.224;2022-09-12T18:13:12;5.80;;;3.20;;
5491;SDS011;2768;53.540;10.224;2022-09-12T18:19:08;4.77;;;3.93;;
5491;SDS011;2768;53.540;10.224;2022-09-12T18:25:01;3.53;;;3.23;;
5491;SDS011;2768;53.540;10.224;2022-09-12T18:30:55;4.70;;;4.30;;
5491;SDS011;2768;53.540;10.224;2022-09-12T18:36:50;5.50;;;2.53;;
5491;SDS011;2768;53.540;10.224;2022-09-12T18:42:45;2.50;;;2.30;;
5491;SDS011;2768;53.540;10.224;2022-09-12T18:48:38;2.53;;;2.30;;
5491;SDS011;2768;53.540;10.224;2022-09-12T18:54:33;2.20;;;1.90;;
5491;SDS011;2768;53.540;10.224;2022-09-12T19:00:27;2.33;;;2.20;;
5491;SDS011;2768;53.540;10.224;2022-09-12T19:06:21;1.90;;;1.80;;
5491;SDS011;2768;53.540;10.224;2022-09-12T19:12:17;2.20;;;2.00;;
5491;SDS011;2768;53.540;10.224;2022-09-12T19:18:10;3.40;;;2.50;;
5491;SDS011;2768;53.540;10.224;2022-09-12T19:24:06;2.70;;;2.50;;
5491;SDS011;2768;53.540;10.224;2022-09-12T19:30:02;3.50;;;2.37;;
5491;SDS011;2768;53.540;10.224;2022-09-12T19:35:55;2.60;;;2.33;;
5491;SDS011;2768;53.540;10.224;2022-09-12T19:41:52;2.33;;;2.13;;
5491;SDS011;2768;53.540;10.224;2022-09-12T19:47:47;4.20;;;2.10;;
5491;SDS011;2768;53.540;10.224;2022-09-12T19:53:40;2.50;;;2.30;;
5491;SDS011;2768;53.540;10.224;2022-09-12T19:59:34;2.40;;;2.20;;
5491;SDS011;2768;53.540;10.224;2022-09-12T20:05:30;3.27;;;2.40;;
5491;SDS011;2768;53.540;10.224;2022-09-12T20:11:23;2.90;;;2.67;;
5491;SDS011;2768;53.540;10.224;2022-09-12T20:17:17;4.73;;;3.10;;
5491;SDS011;2768;53.540;10.224;2022-09-12T20:23:11;3.40;;;2.90;;
5491;SDS011;2768;53.540;10.224;2022-09-12T20:29:05;3.17;;;2.97;;
5491;SDS011;2768;53.540;10.224;2022-09-12T20:34:59;3.10;;;2.90;;
5491;SDS011;2768;53.540;10.224;2022-09-12T20:40:53;3.00;;;2.80;;
5491;SDS011;2768;53.540;10.224;2022-09-12T20:46:47;3.43;;;3.13;;
5491;SDS011;2768;53.540;10.224;2022-09-12T20:52:40;3.67;;;3.37;;
5491;SDS011;2768;53.540;10.224;2022-09-12T20:58:34;3.47;;;3.00;;
5491;SDS011;2768;53.540;10.224;2022-09-12T21:04:34;3.10;;;2.90;;
5491;SDS011;2768;53.540;10.224;2022-09-12T21:10:28;2.83;;;2.63;;
5491;SDS011;2768;53.540;10.224;2022-09-12T21:16:23;7.60;;;5.20;;
5491;SDS011;2768;53.540;10.224;2022-09-12T21:22:17;3.40;;;3.20;;
5491;SDS011;2768;53.540;10.224;2022-09-12T21:28:09;4.17;;;3.00;;
5491;SDS011;2768;53.540;10.224;2022-09-12T21:34:04;3.67;;;3.37;;
5491;SDS011;2768;53.540;10.224;2022-09-12T21:39:57;4.70;;;3.73;;
5491;SDS011;2768;53.540;10.224;2022-09-12T21:45:55;4.17;;;3.63;;
5491;SDS011;2768;53.540;10.224;2022-09-12T21:51:50;4.40;;;4.00;;
5491;SDS011;2768;53.540;10.224;2022-09-12T21:57:43;4.30;;;4.00;;
5491;SDS011;2768;53.540;10.224;2022-09-12T22:03:37;4.10;;;3.80;;
5491;SDS011;2768;53.540;10.224;2022-09-12T22:09:35;3.97;;;3.67;;
5491;SDS011;2768;53.540;10.224;2022-09-12T22:15:28;4.40;;;4.00;;
5491;SDS011;2768;53.540;10.224;2022-09-12T22:21:32;4.30;;;3.90;;
5491;SDS011;2768;53.540;10.224;2022-09-12T22:27:26;6.70;;;3.60;;
5491;SDS011;2768;53.540;10.224;2022-09-12T22:33:20;4.20;;;3.80;;
5491;SDS011;2768;53.540;10.224;2022-09-12T22:39:13;4.80;;;3.60;;
5491;SDS011;2768;53.540;10.224;2022-09-12T22:45:08;3.70;;;3.40;;
5491;SDS011;2768;53.540;10.224;2022-09-12T22:51:02;4.20;;;3.77;;
5491;SDS011;2768;53.540;10.224;2022-09-12T22:56:56;4.07;;;3.53;;
5491;SDS011;2768;53.540;10.224;2022-09-12T23:02:50;3.93;;;3.60;;
5491;SDS011;2768;53.540;10.224;2022-09-12T23:08:44;5.37;;;3.60;;
5491;SDS011;2768;53.540;10.224;2022-09-12T23:14:37;3.90;;;3.60;;
5491;SDS011;2768;53.540;10.224;2022-09-12T23:20:32;3.50;;;3.30;;
5491;SDS011;2768;53.540;10.224;2022-09-12T23:26:25;5.13;;;3.43;;
5491;SDS011;2768;53.540;10.224;2022-09-12T23:32:20;4.73;;;3.73;;
5491;SDS011;2768;53.540;10.224;2022-09-12T23:38:14;4.70;;;3.90;;
5491;SDS011;2768;53.540;10.224;2022-09-12T23:44:08;4.00;;;3.70;;
5491;SDS011;2768;53.540;10.224;2022-09-12T23:50:01;4.40;;;3.30;;
5491;SDS011;2768;53.540;10.224;2022-09-12T23:55:55;3.60;;;3.30;;
